createdAt,value
2023-05-20T00:00:53.544Z,4.90
2023-05-20T00:03:39.853Z,4.07
2023-05-20T00:06:26.114Z,3.97
2023-05-20T00:09:12.591Z,4.13
2023-05-20T00:11:58.972Z,4.72
2023-05-20T00:14:45.329Z,5.22
2023-05-20T00:17:32.021Z,4.68
2023-05-20T00:20:18.190Z,5.78
2023-05-20T00:23:04.312Z,5.32
2023-05-20T00:25:50.795Z,8.60
2023-05-20T00:28:36.993Z,5.30
2023-05-20T00:31:22.938Z,4.40
2023-05-20T00:34:09.969Z,5.10
2023-05-20T00:39:42.084Z,5.85
2023-05-20T00:42:29.227Z,4.57
2023-05-20T00:45:15.419Z,5.30
2023-05-20T00:48:04.119Z,5.80
2023-05-20T00:50:50.979Z,7.25
2023-05-20T00:53:37.236Z,4.10
2023-05-20T00:56:24.724Z,4.50
2023-05-20T00:59:11.391Z,4.47
2023-05-20T01:01:57.953Z,5.43
2023-05-20T01:04:47.189Z,4.97
2023-05-20T01:07:33.968Z,5.25
2023-05-20T01:10:20.134Z,4.68
2023-05-20T01:13:11.464Z,4.85
2023-05-20T01:15:58.575Z,5.07
2023-05-20T01:18:48.589Z,5.50
2023-05-20T01:21:36.466Z,5.47
2023-05-20T01:24:23.132Z,6.35
2023-05-20T01:27:13.612Z,4.72
2023-05-20T01:30:01.296Z,4.60
2023-05-20T01:32:55.003Z,4.57
2023-05-20T01:35:41.863Z,6.07
2023-05-20T01:38:29.274Z,4.85
2023-05-20T01:41:15.984Z,6.65
2023-05-20T01:44:03.304Z,6.25
2023-05-20T01:46:50.696Z,6.07
2023-05-20T01:49:37.064Z,4.63
2023-05-20T01:52:23.719Z,6.72
2023-05-20T01:55:10.073Z,4.95
2023-05-20T01:57:56.097Z,5.15
2023-05-20T02:00:42.280Z,5.53
2023-05-20T02:03:28.283Z,5.75
2023-05-20T02:06:14.242Z,5.95
2023-05-20T02:09:00.965Z,7.38
2023-05-20T02:11:47.132Z,6.00
2023-05-20T02:14:33.562Z,5.38
2023-05-20T02:17:19.568Z,5.55
2023-05-20T02:20:07.717Z,6.00
2023-05-20T02:22:54.581Z,6.20
2023-05-20T02:25:41.187Z,5.82
2023-05-20T02:28:29.901Z,5.85
2023-05-20T02:31:16.421Z,5.20
2023-05-20T02:34:02.244Z,5.50
2023-05-20T02:36:48.761Z,5.35
2023-05-20T02:39:35.017Z,5.55
2023-05-20T02:42:20.925Z,7.60
2023-05-20T02:45:08.530Z,6.63
2023-05-20T02:47:54.672Z,6.30
2023-05-20T02:50:41.275Z,6.20
2023-05-20T02:53:27.410Z,6.80
2023-05-20T02:56:13.300Z,7.72
2023-05-20T02:59:00.220Z,7.97
2023-05-20T03:01:46.838Z,5.30
2023-05-20T03:04:33.030Z,6.03
2023-05-20T03:07:21.552Z,6.03
2023-05-20T03:10:09.469Z,8.80
2023-05-20T03:12:58.761Z,7.63
2023-05-20T03:15:45.682Z,6.07
2023-05-20T03:18:32.108Z,7.38
2023-05-20T03:21:18.843Z,6.43
2023-05-20T03:24:05.209Z,8.75
2023-05-20T03:26:51.237Z,8.27
2023-05-20T03:29:37.782Z,7.07
2023-05-20T03:32:23.985Z,5.75
2023-05-20T03:37:57.206Z,6.93
2023-05-20T03:40:44.158Z,6.53
2023-05-20T03:43:30.697Z,5.88
2023-05-20T03:46:18.213Z,7.20
2023-05-20T03:49:04.603Z,7.50
2023-05-20T03:54:37.812Z,6.53
2023-05-20T03:57:26.210Z,6.43
2023-05-20T04:00:14.561Z,6.25
2023-05-20T04:03:04.383Z,6.95
2023-05-20T04:05:51.036Z,6.95
2023-05-20T04:08:40.412Z,7.20
2023-05-20T04:11:26.910Z,7.60
2023-05-20T04:14:12.938Z,7.15
2023-05-20T04:16:59.300Z,7.55
2023-05-20T04:19:46.201Z,8.45
2023-05-20T04:22:32.928Z,6.95
2023-05-20T04:25:19.166Z,8.57
2023-05-20T04:28:05.901Z,8.02
2023-05-20T04:31:00.304Z,6.95
2023-05-20T04:33:46.892Z,9.05
2023-05-20T04:36:34.652Z,9.82
2023-05-20T04:39:22.756Z,6.88
2023-05-20T04:42:11.787Z,8.90
2023-05-20T04:44:58.249Z,7.65
2023-05-20T04:47:46.041Z,11.48
2023-05-20T04:50:33.111Z,9.10
2023-05-20T04:53:19.406Z,10.90
2023-05-20T04:56:05.924Z,9.35
2023-05-20T04:58:52.742Z,9.23
2023-05-20T05:01:39.084Z,9.07
2023-05-20T05:04:25.578Z,9.85
2023-05-20T05:07:11.689Z,12.25
2023-05-20T05:09:57.588Z,10.40
2023-05-20T05:12:44.085Z,8.77
2023-05-20T05:15:30.389Z,10.75
2023-05-20T05:18:18.617Z,13.43
2023-05-20T05:21:06.325Z,12.48
2023-05-20T05:23:55.238Z,13.18
2023-05-20T05:26:43.168Z,13.93
2023-05-20T05:29:30.960Z,14.40
2023-05-20T05:32:17.275Z,12.98
2023-05-20T05:35:05.489Z,12.85
2023-05-20T05:37:53.292Z,15.27
2023-05-20T05:40:39.845Z,11.77
2023-05-20T05:43:26.627Z,11.48
2023-05-20T05:46:13.122Z,12.25
2023-05-20T05:48:59.043Z,11.02
2023-05-20T05:51:45.483Z,11.02
2023-05-20T05:54:31.602Z,11.93
2023-05-20T05:57:18.111Z,12.85
2023-05-20T06:00:04.781Z,14.13
2023-05-20T06:03:04.529Z,11.48
2023-05-20T06:05:54.474Z,10.95
2023-05-20T06:08:40.421Z,11.00
2023-05-20T06:11:28.007Z,12.10
2023-05-20T06:14:14.077Z,12.07
2023-05-20T06:17:00.385Z,12.07
2023-05-20T06:19:47.432Z,15.10
2023-05-20T06:22:33.635Z,11.07
2023-05-20T06:25:19.990Z,12.18
2023-05-20T06:30:54.684Z,12.50
2023-05-20T06:33:41.189Z,12.13
2023-05-20T06:36:33.069Z,12.40
2023-05-20T06:39:19.811Z,12.30
2023-05-20T06:42:05.788Z,13.38
2023-05-20T06:44:55.170Z,12.43
2023-05-20T06:47:54.522Z,10.52
2023-05-20T06:50:40.782Z,10.52
2023-05-20T06:53:26.850Z,14.18
2023-05-20T06:56:12.822Z,10.40
2023-05-20T06:58:58.799Z,11.75
2023-05-20T07:01:45.802Z,10.48
2023-05-20T07:04:32.237Z,13.98
2023-05-20T07:07:18.217Z,14.05
2023-05-20T07:10:06.610Z,13.95
2023-05-20T07:12:53.212Z,11.43
2023-05-20T07:15:39.630Z,12.15
2023-05-20T07:18:25.881Z,11.23
2023-05-20T07:21:14.083Z,12.10
2023-05-20T07:24:22.920Z,13.35
2023-05-20T07:27:09.463Z,9.55
2023-05-20T07:29:55.731Z,10.73
2023-05-20T07:32:42.323Z,11.05
2023-05-20T07:35:28.708Z,9.68
2023-05-20T07:38:15.695Z,9.85
2023-05-20T07:41:04.350Z,10.57
2023-05-20T07:43:51.587Z,11.27
2023-05-20T07:46:41.875Z,9.25
2023-05-20T07:49:29.435Z,8.15
2023-05-20T07:52:15.853Z,9.20
2023-05-20T07:55:02.528Z,8.45
2023-05-20T07:57:49.150Z,9.90
2023-05-20T08:00:35.848Z,8.30
2023-05-20T08:03:26.940Z,7.35
2023-05-20T08:06:28.766Z,8.23
2023-05-20T08:09:16.159Z,9.40
2023-05-20T08:12:07.806Z,7.57
2023-05-20T08:14:54.602Z,8.13
2023-05-20T08:17:41.129Z,8.90
2023-05-20T08:20:29.584Z,9.13
2023-05-20T08:23:16.789Z,7.80
2023-05-20T08:26:03.730Z,8.23
2023-05-20T08:28:52.365Z,6.32
2023-05-20T08:31:38.959Z,8.07
2023-05-20T08:34:25.750Z,7.57
2023-05-20T08:37:11.910Z,8.45
2023-05-20T08:39:58.317Z,8.00
2023-05-20T08:42:45.045Z,7.63
2023-05-20T08:45:34.578Z,7.95
2023-05-20T08:51:15.774Z,7.35
2023-05-20T08:54:02.531Z,6.63
2023-05-20T08:56:48.999Z,6.43
2023-05-20T08:59:36.193Z,5.63
2023-05-20T09:02:23.217Z,5.65
2023-05-20T09:05:11.845Z,7.03
2023-05-20T09:08:08.776Z,7.97
2023-05-20T09:10:55.123Z,6.55
2023-05-20T09:16:28.798Z,6.97
2023-05-20T09:22:03.837Z,6.20
2023-05-20T09:24:50.811Z,7.82
2023-05-20T09:27:37.195Z,6.10
2023-05-20T09:30:23.972Z,6.82
2023-05-20T09:36:04.979Z,7.30
2023-05-20T09:38:53.643Z,7.70
2023-05-20T09:42:04.026Z,6.70
2023-05-20T09:44:52.182Z,6.50
2023-05-20T09:47:40.953Z,5.50
2023-05-20T09:50:28.854Z,7.45
2023-05-20T09:53:15.913Z,5.15
2023-05-20T09:56:02.266Z,5.57
2023-05-20T09:58:50.094Z,4.85
2023-05-20T10:01:36.177Z,6.45
2023-05-20T10:04:25.404Z,5.30
2023-05-20T10:07:41.261Z,7.72
2023-05-20T10:10:52.973Z,6.70
2023-05-20T10:13:52.057Z,5.18
2023-05-20T10:16:48.178Z,5.25
2023-05-20T10:19:35.619Z,6.57
2023-05-20T10:22:29.685Z,5.45
2023-05-20T10:25:28.679Z,5.53
2023-05-20T10:28:14.951Z,6.03
2023-05-20T10:31:01.661Z,7.03
2023-05-20T10:33:48.434Z,5.78
2023-05-20T10:36:34.940Z,4.47
2023-05-20T10:39:30.339Z,6.55
2023-05-20T10:42:16.720Z,4.68
2023-05-20T10:45:03.933Z,6.60
2023-05-20T10:47:58.266Z,6.00
2023-05-20T10:50:45.647Z,7.45
2023-05-20T10:53:46.672Z,5.65
2023-05-20T10:56:33.096Z,6.32
2023-05-20T10:59:21.622Z,5.57
2023-05-20T11:02:11.580Z,4.97
2023-05-20T11:04:58.645Z,4.00
2023-05-20T11:07:44.840Z,6.03
2023-05-20T11:10:31.794Z,4.38
2023-05-20T11:13:18.379Z,4.43
2023-05-20T11:16:05.806Z,4.95
2023-05-20T11:18:52.315Z,3.30
2023-05-20T11:21:44.493Z,3.80
2023-05-20T11:24:30.784Z,4.57
2023-05-20T11:27:16.767Z,4.68
2023-05-20T11:30:04.073Z,3.90
2023-05-20T11:33:01.607Z,3.75
2023-05-20T11:35:53.006Z,4.32
2023-05-20T11:38:41.965Z,4.45
2023-05-20T11:41:28.782Z,6.40
2023-05-20T11:44:14.793Z,5.50
2023-05-20T11:47:01.904Z,4.40
2023-05-20T11:49:49.581Z,4.07
2023-05-20T11:52:35.575Z,4.50
2023-05-20T11:55:21.912Z,5.07
2023-05-20T11:58:07.794Z,4.70
2023-05-20T12:01:01.881Z,4.40
2023-05-20T12:03:54.262Z,6.15
2023-05-20T12:06:40.771Z,4.78
2023-05-20T12:09:27.248Z,12.07
2023-05-20T12:12:14.156Z,5.75
2023-05-20T12:15:00.392Z,5.47
2023-05-20T12:17:52.286Z,5.22
2023-05-20T12:20:39.598Z,7.85
2023-05-20T12:23:26.464Z,7.13
2023-05-20T12:26:13.088Z,5.07
2023-05-20T12:28:59.181Z,4.95
2023-05-20T12:34:32.090Z,4.70
2023-05-20T12:37:18.317Z,6.80
2023-05-20T12:40:08.377Z,6.35
2023-05-20T12:42:54.415Z,5.68
2023-05-20T12:45:40.511Z,6.07
2023-05-20T12:48:26.388Z,8.45
2023-05-20T12:51:12.656Z,8.25
2023-05-20T12:53:58.731Z,7.00
2023-05-20T12:56:47.499Z,6.75
2023-05-20T12:59:33.398Z,8.82
2023-05-20T13:02:19.729Z,8.00
2023-05-20T13:05:06.645Z,12.45
2023-05-20T13:07:52.839Z,8.32
2023-05-20T13:10:38.942Z,6.22
2023-05-20T13:13:24.789Z,8.25
2023-05-20T13:16:12.026Z,6.82
2023-05-20T13:18:58.231Z,7.80
2023-05-20T13:21:44.483Z,8.23
2023-05-20T13:24:30.930Z,6.35
2023-05-20T13:27:17.050Z,5.95
2023-05-20T13:30:04.150Z,6.28
2023-05-20T13:32:50.586Z,6.63
2023-05-20T13:35:37.119Z,8.73
2023-05-20T13:38:23.523Z,5.80
2023-05-20T13:41:09.507Z,7.47
2023-05-20T13:43:55.302Z,8.32
2023-05-20T13:46:41.369Z,7.13
2023-05-20T13:49:27.682Z,6.32
2023-05-20T13:52:13.893Z,7.03
2023-05-20T13:55:00.125Z,6.75
2023-05-20T13:57:46.603Z,7.57
2023-05-20T14:00:33.092Z,7.68
2023-05-20T14:03:19.983Z,7.18
2023-05-20T14:06:06.661Z,7.15
2023-05-20T14:08:54.754Z,7.95
2023-05-20T14:11:41.281Z,8.60
2023-05-20T14:14:27.673Z,9.35
2023-05-20T14:17:13.583Z,8.40
2023-05-20T14:20:00.637Z,7.13
2023-05-20T14:22:47.205Z,7.90
2023-05-20T14:25:33.080Z,9.18
2023-05-20T14:28:19.820Z,7.85
2023-05-20T14:31:08.951Z,11.40
2023-05-20T14:33:55.836Z,8.85
2023-05-20T14:36:41.903Z,6.88
2023-05-20T14:39:28.186Z,8.23
2023-05-20T14:42:14.296Z,7.60
2023-05-20T14:45:00.842Z,7.63
2023-05-20T14:47:47.056Z,9.65
2023-05-20T14:50:33.057Z,8.27
2023-05-20T14:53:19.702Z,11.13
2023-05-20T14:56:06.267Z,7.32
2023-05-20T14:58:54.008Z,9.43
2023-05-20T15:01:40.025Z,9.23
2023-05-20T15:04:27.187Z,9.13
2023-05-20T15:07:15.201Z,7.13
2023-05-20T15:10:01.158Z,8.43
2023-05-20T15:12:47.642Z,9.10
2023-05-20T15:15:34.272Z,9.20
2023-05-20T15:18:20.663Z,8.43
2023-05-20T15:21:06.836Z,7.32
2023-05-20T15:23:52.808Z,7.38
2023-05-20T15:26:40.551Z,8.45
2023-05-20T15:29:26.535Z,8.07
2023-05-20T15:32:12.405Z,9.73
2023-05-20T15:34:58.589Z,8.73
2023-05-20T15:37:44.554Z,8.55
2023-05-20T15:40:30.460Z,10.40
2023-05-20T15:43:17.560Z,7.57
2023-05-20T15:46:03.810Z,6.75
2023-05-20T15:48:51.401Z,11.52
2023-05-20T15:51:37.615Z,9.40
2023-05-20T15:54:23.380Z,9.93
2023-05-20T15:57:10.161Z,7.53
2023-05-20T15:59:57.292Z,8.20
2023-05-20T16:02:43.990Z,7.05
2023-05-20T16:05:30.580Z,8.57
2023-05-20T16:08:16.908Z,7.53
2023-05-20T16:11:03.381Z,8.10
2023-05-20T16:16:36.365Z,8.65
2023-05-20T16:19:23.165Z,7.57
2023-05-20T16:22:09.525Z,9.68
2023-05-20T16:24:56.054Z,7.60
2023-05-20T16:27:42.239Z,8.77
2023-05-20T16:30:28.203Z,10.25
2023-05-20T16:33:14.650Z,6.95
2023-05-20T16:36:01.318Z,9.80
2023-05-20T16:38:47.753Z,7.65
2023-05-20T16:41:34.454Z,7.95
2023-05-20T16:44:20.664Z,8.02
2023-05-20T16:47:07.702Z,7.93
2023-05-20T16:49:53.966Z,9.23
2023-05-20T16:52:39.923Z,10.35
2023-05-20T16:55:26.075Z,8.05
2023-05-20T16:58:12.233Z,11.32
2023-05-20T17:00:58.296Z,9.10
2023-05-20T17:03:44.813Z,8.98
2023-05-20T17:09:19.977Z,8.23
2023-05-20T17:12:06.643Z,8.88
2023-05-20T17:14:52.575Z,9.25
2023-05-20T17:17:39.068Z,6.95
2023-05-20T17:20:25.064Z,8.13
2023-05-20T17:23:11.034Z,9.32
2023-05-20T17:25:56.919Z,8.82
2023-05-20T17:28:43.043Z,8.48
2023-05-20T17:34:15.530Z,9.40
2023-05-20T17:37:01.863Z,7.55
2023-05-20T17:42:34.555Z,9.95
2023-05-20T17:45:20.986Z,9.40
2023-05-20T17:53:44.691Z,7.70
2023-05-20T17:56:30.629Z,8.38
2023-05-20T17:59:17.059Z,8.00
2023-05-20T18:04:49.516Z,8.90
2023-05-20T18:07:37.365Z,8.98
2023-05-20T18:10:23.427Z,9.27
2023-05-20T18:13:09.373Z,11.57
2023-05-20T18:15:55.346Z,10.10
2023-05-20T18:18:41.818Z,9.77
2023-05-20T18:21:27.698Z,9.63
2023-05-20T18:24:16.477Z,9.07
2023-05-20T18:27:02.643Z,9.80
2023-05-20T18:29:49.983Z,8.57
2023-05-20T18:32:36.361Z,11.73
2023-05-20T18:35:22.782Z,8.90
2023-05-20T18:38:08.778Z,11.40
2023-05-20T18:40:54.921Z,11.70
2023-05-20T18:43:41.224Z,8.77
2023-05-20T18:46:27.415Z,8.95
2023-05-20T18:49:13.719Z,9.38
2023-05-20T18:51:59.804Z,10.32
2023-05-20T18:54:46.083Z,9.40
2023-05-20T19:00:18.283Z,9.57
2023-05-20T19:05:50.943Z,8.20
2023-05-20T19:11:23.137Z,11.23
2023-05-20T19:14:09.056Z,9.45
2023-05-20T19:16:55.119Z,8.77
2023-05-20T19:19:41.898Z,9.82
2023-05-20T19:22:27.683Z,9.70
2023-05-20T19:25:13.537Z,10.13
2023-05-20T19:30:46.130Z,8.60
2023-05-20T19:33:32.265Z,10.45
2023-05-20T19:36:18.553Z,8.82
2023-05-20T19:39:04.897Z,9.27
2023-05-20T19:41:52.944Z,9.80
2023-05-20T19:44:39.306Z,11.75
2023-05-20T19:47:25.258Z,9.75
2023-05-20T19:50:11.781Z,10.57
2023-05-20T19:52:57.828Z,8.63
2023-05-20T19:55:43.801Z,11.93
2023-05-20T19:58:29.891Z,8.02
2023-05-20T20:01:17.054Z,11.60
2023-05-20T20:04:03.132Z,8.18
2023-05-20T20:06:49.592Z,9.35
2023-05-20T20:09:36.083Z,11.55
2023-05-20T20:12:22.620Z,11.65
2023-05-20T20:15:09.593Z,10.70
2023-05-20T20:17:55.912Z,10.05
2023-05-20T20:20:43.306Z,9.32
2023-05-20T20:23:29.807Z,10.57
2023-05-20T20:26:15.618Z,10.35
2023-05-20T20:29:02.044Z,9.45
2023-05-20T20:31:48.446Z,10.60
2023-05-20T20:37:23.005Z,11.32
2023-05-20T20:40:13.269Z,9.05
2023-05-20T20:43:00.876Z,11.80
2023-05-20T20:45:47.066Z,9.65
2023-05-20T20:48:34.531Z,9.27
2023-05-20T20:51:20.817Z,9.60
2023-05-20T20:54:07.947Z,10.15
2023-05-20T20:56:56.962Z,10.05
2023-05-20T20:59:47.543Z,9.10
2023-05-20T21:02:33.810Z,9.40
2023-05-20T21:05:21.457Z,11.15
2023-05-20T21:08:08.538Z,9.63
2023-05-20T21:10:59.053Z,10.70
2023-05-20T21:13:45.168Z,9.35
2023-05-20T21:16:31.702Z,10.27
2023-05-20T21:19:18.034Z,10.73
2023-05-20T21:24:50.167Z,9.80
2023-05-20T21:27:36.487Z,10.30
2023-05-20T21:30:24.075Z,10.40
2023-05-20T21:33:10.029Z,10.85
2023-05-20T21:38:42.621Z,10.40
2023-05-20T21:41:28.538Z,9.70
2023-05-20T21:44:14.558Z,12.30
2023-05-20T21:47:00.495Z,12.43
2023-05-20T21:49:47.992Z,12.15
2023-05-20T21:52:34.519Z,10.57
2023-05-20T21:55:23.500Z,9.55
2023-05-20T21:58:09.536Z,8.35
2023-05-20T22:00:55.476Z,10.43
2023-05-20T22:03:46.705Z,9.07
2023-05-20T22:06:36.208Z,9.02
2023-05-20T22:09:22.700Z,9.93
2023-05-20T22:12:11.097Z,11.63
2023-05-20T22:14:57.441Z,9.68
2023-05-20T22:17:44.766Z,7.93
2023-05-20T22:20:33.739Z,9.13
2023-05-20T22:23:19.760Z,8.38
2023-05-20T22:26:06.358Z,10.20
2023-05-20T22:28:52.924Z,8.30
2023-05-20T22:31:39.147Z,10.82
2023-05-20T22:34:25.664Z,9.80
2023-05-20T22:37:12.080Z,8.13
2023-05-20T22:39:58.298Z,9.10
2023-05-20T22:42:44.541Z,8.30
2023-05-20T22:45:30.620Z,9.00
2023-05-20T22:48:16.623Z,7.93
2023-05-20T22:51:03.825Z,10.18
2023-05-20T22:53:49.803Z,9.35
2023-05-20T22:56:35.958Z,8.65
2023-05-20T22:59:22.312Z,10.57
2023-05-20T23:04:54.782Z,7.82
2023-05-20T23:10:27.019Z,9.63
2023-05-20T23:13:13.041Z,9.55
2023-05-20T23:15:58.943Z,8.48
2023-05-20T23:18:45.012Z,8.70
2023-05-20T23:21:31.733Z,8.80
2023-05-20T23:24:18.023Z,8.15
2023-05-20T23:27:04.528Z,8.25
2023-05-20T23:29:50.336Z,8.15
2023-05-20T23:35:23.353Z,10.05
2023-05-20T23:38:09.118Z,8.35
2023-05-20T23:40:54.995Z,8.48
2023-05-20T23:43:40.993Z,10.93
2023-05-20T23:46:27.203Z,7.93
2023-05-20T23:49:13.114Z,9.43
2023-05-20T23:51:58.980Z,7.85
2023-05-20T23:54:45.070Z,8.60
2023-05-20T23:57:31.052Z,7.90
